createdAt,value
2019-04-05T00:02:08.901Z,6.50
2019-04-05T00:04:39.829Z,6.50
2019-04-05T00:07:10.643Z,6.40
2019-04-05T00:09:41.835Z,6.40
2019-04-05T00:12:12.690Z,6.40
2019-04-05T00:14:43.538Z,6.40
2019-04-05T00:17:14.384Z,6.30
2019-04-05T00:19:46.460Z,6.40
2019-04-05T00:22:17.910Z,6.40
2019-04-05T00:24:48.733Z,6.30
2019-04-05T00:27:19.658Z,6.20
2019-04-05T00:29:50.543Z,6.20
2019-04-05T00:32:21.775Z,6.20
2019-04-05T00:34:52.944Z,6.20
2019-04-05T00:37:23.861Z,6.20
2019-04-05T00:39:54.903Z,6.20
2019-04-05T00:42:26.200Z,6.20
2019-04-05T00:44:57.295Z,6.10
2019-04-05T00:47:28.337Z,6.00
2019-04-05T00:49:59.473Z,5.90
2019-04-05T00:52:30.672Z,5.90
2019-04-05T00:55:01.899Z,5.90
2019-04-05T00:57:34.101Z,5.90
2019-04-05T01:00:06.191Z,5.80
2019-04-05T01:02:37.358Z,5.80
2019-04-05T01:05:08.722Z,5.70
2019-04-05T01:07:40.192Z,5.70
2019-04-05T01:10:11.715Z,5.70
2019-04-05T01:12:43.232Z,5.70
2019-04-05T01:15:14.293Z,5.60
2019-04-05T01:17:46.140Z,5.70
2019-04-05T01:20:17.101Z,5.70
2019-04-05T01:22:48.908Z,5.50
2019-04-05T01:25:21.175Z,5.40
2019-04-05T01:27:52.197Z,5.50
2019-04-05T01:30:23.169Z,5.40
2019-04-05T01:32:54.378Z,5.40
2019-04-05T01:35:26.769Z,5.40
2019-04-05T01:37:57.999Z,5.40
2019-04-05T01:40:32.474Z,5.50
2019-04-05T01:43:03.769Z,5.40
2019-04-05T01:45:34.897Z,5.40
2019-04-05T01:48:05.845Z,5.40
2019-04-05T01:50:36.781Z,5.30
2019-04-05T01:53:07.702Z,5.40
2019-04-05T01:55:38.647Z,5.30
2019-04-05T01:58:09.456Z,5.20
2019-04-05T02:00:40.501Z,5.10
2019-04-05T02:03:11.333Z,5.00
2019-04-05T02:05:42.182Z,4.90
2019-04-05T02:08:13.009Z,5.00
2019-04-05T02:10:44.354Z,4.90
2019-04-05T02:13:15.160Z,4.80
2019-04-05T02:15:46.408Z,4.90
2019-04-05T02:18:17.474Z,4.80
2019-04-05T02:20:48.625Z,4.90
2019-04-05T02:23:20.556Z,4.80
2019-04-05T02:25:51.784Z,4.90
2019-04-05T02:28:25.250Z,4.90
2019-04-05T02:30:55.234Z,4.80
2019-04-05T02:33:26.051Z,4.90
2019-04-05T02:35:56.994Z,4.90
2019-04-05T02:38:27.941Z,4.90
2019-04-05T02:41:01.109Z,4.80
2019-04-05T02:43:34.216Z,4.80
2019-04-05T02:46:22.224Z,4.70
2019-04-05T02:48:40.723Z,4.70
2019-04-05T02:51:13.343Z,4.80
2019-04-05T02:53:45.989Z,4.70
2019-04-05T02:56:18.137Z,4.60
2019-04-05T02:58:49.796Z,4.50
2019-04-05T03:01:22.687Z,4.60
2019-04-05T03:03:53.298Z,4.70
2019-04-05T03:06:24.332Z,4.60
2019-04-05T03:08:56.171Z,4.60
2019-04-05T03:11:31.527Z,4.60
2019-04-05T03:14:04.655Z,4.60
2019-04-05T03:16:41.702Z,4.60
2019-04-05T03:19:21.866Z,4.50
2019-04-05T03:21:56.617Z,4.50
2019-04-05T03:24:30.459Z,4.50
2019-04-05T03:27:05.453Z,4.50
2019-04-05T03:29:36.738Z,4.40
2019-04-05T03:32:07.895Z,4.40
2019-04-05T03:34:39.943Z,4.50
2019-04-05T03:37:11.488Z,4.50
2019-04-05T03:39:42.454Z,4.40
2019-04-05T03:42:13.444Z,4.30
2019-04-05T03:44:44.265Z,4.40
2019-04-05T03:47:15.866Z,4.50
2019-04-05T03:49:47.309Z,4.40
2019-04-05T03:52:18.610Z,4.40
2019-04-05T03:54:49.536Z,4.40
2019-04-05T03:57:20.609Z,4.40
2019-04-05T03:59:52.034Z,4.40
2019-04-05T04:02:23.782Z,4.40
2019-04-05T04:04:55.312Z,4.50
2019-04-05T04:07:26.434Z,4.50
2019-04-05T04:09:57.396Z,4.50
2019-04-05T04:12:28.368Z,4.40
2019-04-05T04:15:13.959Z,4.40
2019-04-05T04:17:46.486Z,4.50
2019-04-05T04:20:40.852Z,4.50
2019-04-05T04:23:13.498Z,4.50
2019-04-05T04:25:45.148Z,4.60
2019-04-05T04:28:16.086Z,4.70
2019-04-05T04:30:47.055Z,5.10
2019-04-05T04:33:18.585Z,5.60
2019-04-05T04:35:50.569Z,6.20
2019-04-05T04:38:21.629Z,6.80
2019-04-05T04:40:52.880Z,7.80
2019-04-05T04:43:24.177Z,8.50
2019-04-05T04:45:55.510Z,8.80
2019-04-05T04:48:26.772Z,8.70
2019-04-05T04:50:58.719Z,9.00
2019-04-05T04:53:30.274Z,9.40
2019-04-05T04:56:01.704Z,9.70
2019-04-05T04:58:33.232Z,9.70
2019-04-05T05:01:04.941Z,10.00
2019-04-05T05:03:45.567Z,9.90
2019-04-05T05:06:17.995Z,10.60
2019-04-05T05:08:49.487Z,11.30
2019-04-05T05:11:20.579Z,11.10
2019-04-05T05:13:51.509Z,11.80
2019-04-05T05:16:22.460Z,11.90
2019-04-05T05:18:53.829Z,11.70
2019-04-05T05:21:25.437Z,11.10
2019-04-05T05:23:56.837Z,11.30
2019-04-05T05:26:28.274Z,11.90
2019-04-05T05:28:59.645Z,12.80
2019-04-05T05:31:30.864Z,12.70
2019-04-05T05:34:02.527Z,12.50
2019-04-05T05:36:33.772Z,12.90
2019-04-05T05:39:07.001Z,13.30
2019-04-05T05:41:37.859Z,14.20
2019-04-05T05:44:08.800Z,13.90
2019-04-05T05:46:39.724Z,13.60
2019-04-05T05:49:11.032Z,13.70
2019-04-05T05:51:43.352Z,14.70
2019-04-05T05:54:14.632Z,14.80
2019-04-05T05:56:45.780Z,15.10
2019-04-05T05:59:16.969Z,15.10
2019-04-05T06:01:48.093Z,15.80
2019-04-05T06:04:19.220Z,15.60
2019-04-05T06:06:50.376Z,15.20
2019-04-05T06:09:21.687Z,14.40
2019-04-05T06:11:52.517Z,15.50
2019-04-05T06:14:23.765Z,16.30
2019-04-05T06:16:55.109Z,16.40
2019-04-05T06:19:26.528Z,17.00
2019-04-05T06:21:57.441Z,17.10
2019-04-05T06:24:28.287Z,16.90
2019-04-05T06:26:59.125Z,17.30
2019-04-05T06:29:30.005Z,17.10
2019-04-05T06:32:01.110Z,17.70
2019-04-05T06:34:32.295Z,17.50
2019-04-05T06:37:03.136Z,18.10
2019-04-05T06:39:34.239Z,18.00
2019-04-05T06:42:05.069Z,17.60
2019-04-05T06:44:36.124Z,18.00
2019-04-05T06:47:07.361Z,17.60
2019-04-05T06:49:38.408Z,18.30
2019-04-05T06:52:09.598Z,18.60
2019-04-05T06:54:41.010Z,19.40
2019-04-05T06:57:12.158Z,19.50
2019-04-05T06:59:43.227Z,18.50
2019-04-05T07:02:14.360Z,17.70
2019-04-05T07:04:45.237Z,18.60
2019-04-05T07:07:17.921Z,19.30
2019-04-05T07:09:48.583Z,20.00
2019-04-05T07:12:20.798Z,19.60
2019-04-05T07:14:52.288Z,20.40
2019-04-05T07:17:23.771Z,20.70
2019-04-05T07:19:54.924Z,21.00
2019-04-05T07:22:35.856Z,20.90
2019-04-05T07:24:59.048Z,20.60
2019-04-05T07:27:30.092Z,20.00
2019-04-05T07:30:01.377Z,20.40
2019-04-05T07:32:32.229Z,19.90
2019-04-05T07:35:04.222Z,20.70
2019-04-05T07:37:36.256Z,19.80
2019-04-05T07:40:08.654Z,20.80
2019-04-05T07:42:39.495Z,20.90
2019-04-05T07:45:10.428Z,20.60
2019-04-05T07:47:41.261Z,21.10
2019-04-05T07:50:12.912Z,21.90
2019-04-05T07:52:44.132Z,21.90
2019-04-05T07:55:15.762Z,21.30
2019-04-05T07:57:46.896Z,20.70
2019-04-05T08:00:53.176Z,20.30
2019-04-05T08:03:24.729Z,20.90
2019-04-05T08:05:56.610Z,20.40
2019-04-05T08:09:07.788Z,20.40
2019-04-05T08:11:40.558Z,21.50
2019-04-05T08:14:13.297Z,20.60
2019-04-05T08:16:44.281Z,20.60
2019-04-05T08:19:15.379Z,21.30
2019-04-05T08:21:46.292Z,20.60
2019-04-05T08:24:17.412Z,20.30
2019-04-05T08:26:48.287Z,20.70
2019-04-05T08:29:19.931Z,20.70
2019-04-05T08:31:50.946Z,20.80
2019-04-05T08:34:22.195Z,21.20
2019-04-05T08:36:53.339Z,20.90
2019-04-05T08:39:24.688Z,20.50
2019-04-05T08:41:55.864Z,20.00
2019-04-05T08:44:27.137Z,20.00
2019-04-05T08:46:58.453Z,19.80
2019-04-05T08:49:29.508Z,18.80
2019-04-05T08:52:00.949Z,18.30
2019-04-05T08:54:35.043Z,18.30
2019-04-05T08:57:04.705Z,18.40
2019-04-05T08:59:36.078Z,18.60
2019-04-05T09:02:06.932Z,18.70
2019-04-05T09:04:37.924Z,18.90
2019-04-05T09:07:08.769Z,18.90
2019-04-05T09:09:39.966Z,18.90
2019-04-05T09:12:10.873Z,19.20
2019-04-05T09:14:41.855Z,19.40
2019-04-05T09:17:13.197Z,19.50
2019-04-05T09:19:46.937Z,19.20
2019-04-05T09:22:17.856Z,17.60
2019-04-05T09:24:48.700Z,18.30
2019-04-05T09:27:19.571Z,18.40
2019-04-05T09:29:50.436Z,18.10
2019-04-05T09:32:21.413Z,18.00
2019-04-05T09:34:53.568Z,18.20
2019-04-05T09:37:24.907Z,18.40
2019-04-05T09:39:56.404Z,18.30
2019-04-05T09:42:29.363Z,18.40
2019-04-05T09:45:01.062Z,18.00
2019-04-05T09:47:33.364Z,18.00
2019-04-05T09:50:04.885Z,18.00
2019-04-05T09:52:36.571Z,17.30
2019-04-05T09:55:07.943Z,17.40
2019-04-05T09:57:38.811Z,16.90
2019-04-05T10:00:16.440Z,17.50
2019-04-05T10:02:47.772Z,17.50
2019-04-05T10:05:18.563Z,17.20
2019-04-05T10:07:55.150Z,16.60
2019-04-05T10:10:22.309Z,17.20
2019-04-05T10:12:53.464Z,17.20
2019-04-05T10:15:24.816Z,17.10
2019-04-05T10:17:56.903Z,17.10
2019-04-05T10:20:28.972Z,17.20
2019-04-05T10:22:59.868Z,17.00
2019-04-05T10:25:30.717Z,16.80
2019-04-05T10:28:01.980Z,16.70
2019-04-05T10:30:32.982Z,16.40
2019-04-05T10:33:04.589Z,16.50
2019-04-05T10:35:35.636Z,15.80
2019-04-05T10:38:06.864Z,16.00
2019-04-05T10:40:37.732Z,16.10
2019-04-05T10:43:08.859Z,16.30
2019-04-05T10:45:39.694Z,16.20
2019-04-05T10:48:10.743Z,16.20
2019-04-05T10:50:41.679Z,16.20
2019-04-05T10:53:13.021Z,16.10
2019-04-05T10:55:43.882Z,16.10
2019-04-05T10:58:14.872Z,15.80
2019-04-05T11:00:46.149Z,15.50
2019-04-05T11:03:17.264Z,15.50
2019-04-05T11:05:49.475Z,15.40
2019-04-05T11:08:21.481Z,15.20
2019-04-05T11:10:52.352Z,15.30
2019-04-05T11:13:23.281Z,15.40
2019-04-05T11:15:55.451Z,15.30
2019-04-05T11:18:26.796Z,15.10
2019-04-05T11:20:59.024Z,15.00
2019-04-05T11:23:30.034Z,15.10
2019-04-05T11:26:05.639Z,14.90
2019-04-05T11:28:36.890Z,15.00
2019-04-05T11:31:11.730Z,14.80
2019-04-05T11:33:46.188Z,14.70
2019-04-05T11:36:17.432Z,14.60
2019-04-05T11:38:50.889Z,14.80
2019-04-05T11:41:23.082Z,14.70
2019-04-05T11:43:58.501Z,14.80
2019-04-05T11:46:29.816Z,14.80
2019-04-05T11:49:03.761Z,14.50
2019-04-05T11:51:34.727Z,14.50
2019-04-05T11:54:05.676Z,14.80
2019-04-05T11:56:37.604Z,14.80
2019-04-05T11:59:13.347Z,14.80
2019-04-05T12:02:03.581Z,14.70
2019-04-05T12:04:34.412Z,14.70
2019-04-05T12:07:05.618Z,14.80
2019-04-05T12:09:36.463Z,14.50
2019-04-05T12:12:08.053Z,14.50
2019-04-05T12:14:38.980Z,14.50
2019-04-05T12:17:09.901Z,14.50
2019-04-05T12:19:41.165Z,14.60
2019-04-05T12:22:12.769Z,14.70
2019-04-05T12:24:44.317Z,14.80
2019-04-05T12:27:17.323Z,14.50
2019-04-05T12:29:48.144Z,14.70
2019-04-05T12:32:32.995Z,14.70
2019-04-05T12:34:53.819Z,14.70
2019-04-05T12:37:25.774Z,14.70
2019-04-05T12:39:56.647Z,14.80
2019-04-05T12:42:28.943Z,14.70
2019-04-05T12:44:59.833Z,14.70
2019-04-05T12:47:32.696Z,14.70
2019-04-05T12:50:03.234Z,14.70
2019-04-05T12:52:34.184Z,14.70
2019-04-05T12:55:06.161Z,14.70
2019-04-05T12:57:37.159Z,14.60
2019-04-05T13:00:09.270Z,14.60
2019-04-05T13:02:40.524Z,14.40
2019-04-05T13:05:11.844Z,14.40
2019-04-05T13:07:42.692Z,14.30
2019-04-05T13:10:14.320Z,14.50
2019-04-05T13:12:46.590Z,14.50
2019-04-05T13:15:17.721Z,14.50
2019-04-05T13:17:48.546Z,14.50
2019-04-05T13:20:19.895Z,14.50
2019-04-05T13:22:51.118Z,14.60
2019-04-05T13:25:23.080Z,14.70
2019-04-05T13:27:54.145Z,14.50
2019-04-05T13:30:25.052Z,14.60
2019-04-05T13:32:55.901Z,14.70
2019-04-05T13:35:27.105Z,14.70
2019-04-05T13:37:58.529Z,14.50
2019-04-05T13:40:31.032Z,14.50
2019-04-05T13:43:06.421Z,14.60
2019-04-05T13:45:37.652Z,14.60
2019-04-05T13:48:09.626Z,14.60
2019-04-05T13:50:41.669Z,14.50
2019-04-05T13:53:13.088Z,14.60
2019-04-05T13:55:43.934Z,14.50
2019-04-05T13:58:15.084Z,14.50
2019-04-05T14:00:48.652Z,14.60
2019-04-05T14:03:20.901Z,14.60
2019-04-05T14:05:55.255Z,14.50
2019-04-05T14:08:26.875Z,14.40
2019-04-05T14:10:57.889Z,14.40
2019-04-05T14:13:28.740Z,14.40
2019-04-05T14:15:59.587Z,14.40
2019-04-05T14:18:30.913Z,14.40
2019-04-05T14:21:01.949Z,14.50
2019-04-05T14:23:45.792Z,14.50
2019-04-05T14:26:25.125Z,14.40
2019-04-05T14:28:57.314Z,14.40
2019-04-05T14:31:29.600Z,14.40
2019-04-05T14:34:00.787Z,14.40
2019-04-05T14:36:31.661Z,14.40
2019-04-05T14:39:02.727Z,14.30
2019-04-05T14:41:35.363Z,14.30
2019-04-05T14:44:06.623Z,14.30
2019-04-05T14:46:38.517Z,14.30
2019-04-05T14:49:09.881Z,14.30
2019-04-05T14:51:52.540Z,14.30
2019-04-05T14:54:13.253Z,14.20
2019-04-05T14:56:44.072Z,14.10
2019-04-05T14:59:15.131Z,14.20
2019-04-05T15:01:47.078Z,14.10
2019-04-05T15:04:18.551Z,14.10
2019-04-05T15:06:50.636Z,14.10
2019-04-05T15:09:25.330Z,14.10
2019-04-05T15:11:56.500Z,14.10
2019-04-05T15:14:27.408Z,14.10
2019-04-05T15:16:58.473Z,14.10
2019-04-05T15:19:29.677Z,14.10
2019-04-05T15:22:05.865Z,14.10
2019-04-05T15:24:33.448Z,14.10
2019-04-05T15:27:04.384Z,14.10
2019-04-05T15:29:36.237Z,14.10
2019-04-05T15:32:08.094Z,14.00
2019-04-05T15:34:39.155Z,14.00
2019-04-05T15:37:10.193Z,13.90
2019-04-05T15:39:44.193Z,13.90
2019-04-05T15:42:14.121Z,13.90
2019-04-05T15:44:45.288Z,13.90
2019-04-05T15:47:16.127Z,13.80
2019-04-05T15:49:47.455Z,13.80
2019-04-05T15:52:19.354Z,13.70
2019-04-05T15:54:50.762Z,13.70
2019-04-05T15:57:22.002Z,13.70
2019-04-05T15:59:53.660Z,13.60
2019-04-05T16:02:25.023Z,13.60
2019-04-05T16:04:56.066Z,13.60
2019-04-05T16:07:26.895Z,13.60
2019-04-05T16:09:58.132Z,13.60
2019-04-05T16:12:29.405Z,13.60
2019-04-05T16:15:00.277Z,13.60
2019-04-05T16:17:31.124Z,13.50
2019-04-05T16:20:02.457Z,13.40
2019-04-05T16:22:35.898Z,13.40
2019-04-05T16:25:07.320Z,13.30
2019-04-05T16:27:38.745Z,13.40
2019-04-05T16:30:10.210Z,13.40
2019-04-05T16:32:41.791Z,13.50
2019-04-05T16:35:14.572Z,13.50
2019-04-05T16:37:45.423Z,13.40
2019-04-05T16:40:16.707Z,13.30
2019-04-05T16:42:47.549Z,13.20
2019-04-05T16:45:19.137Z,13.10
2019-04-05T16:47:50.045Z,13.10
2019-04-05T16:50:21.439Z,13.10
2019-04-05T16:52:52.487Z,13.00
2019-04-05T16:55:23.689Z,13.00
2019-04-05T16:57:57.153Z,12.90
2019-04-05T17:00:28.042Z,12.80
2019-04-05T17:02:59.040Z,12.80
2019-04-05T17:05:30.545Z,12.70
2019-04-05T17:08:01.409Z,12.70
2019-04-05T17:10:32.778Z,12.60
2019-04-05T17:13:03.741Z,12.60
2019-04-05T17:15:34.931Z,12.60
2019-04-05T17:18:07.546Z,12.60
2019-04-05T17:20:41.015Z,12.50
2019-04-05T17:23:11.933Z,12.40
2019-04-05T17:25:42.881Z,12.40
2019-04-05T17:28:14.248Z,12.30
2019-04-05T17:30:45.097Z,12.30
2019-04-05T17:33:15.993Z,12.20
2019-04-05T17:35:47.037Z,12.20
2019-04-05T17:38:18.339Z,12.10
2019-04-05T17:40:49.188Z,12.00
2019-04-05T17:43:20.136Z,11.90
2019-04-05T17:45:51.127Z,12.00
2019-04-05T17:48:21.984Z,11.90
2019-04-05T17:50:53.088Z,11.90
2019-04-05T17:53:23.955Z,11.90
2019-04-05T17:55:59.093Z,11.90
2019-04-05T17:58:32.549Z,11.90
2019-04-05T18:01:06.907Z,11.80
2019-04-05T18:03:41.805Z,11.80
2019-04-05T18:06:16.358Z,11.70
2019-04-05T18:08:53.789Z,11.60
2019-04-05T18:11:25.659Z,11.70
2019-04-05T18:13:57.222Z,11.60
2019-04-05T18:16:30.634Z,11.60
2019-04-05T18:19:01.877Z,11.40
2019-04-05T18:21:32.750Z,11.40
2019-04-05T18:24:03.801Z,11.40
2019-04-05T18:26:34.748Z,11.40
2019-04-05T18:29:05.720Z,11.40
2019-04-05T18:31:36.880Z,11.30
2019-04-05T18:34:07.857Z,11.20
2019-04-05T18:36:38.719Z,11.20
2019-04-05T18:39:11.666Z,11.30
2019-04-05T18:41:43.092Z,11.40
2019-04-05T18:44:14.133Z,11.30
2019-04-05T18:46:45.170Z,11.30
2019-04-05T18:49:16.029Z,11.30
2019-04-05T18:51:47.215Z,11.20
2019-04-05T18:54:18.627Z,11.10
2019-04-05T18:56:49.471Z,11.10
2019-04-05T18:59:21.428Z,11.10
2019-04-05T19:01:52.362Z,11.00
2019-04-05T19:04:23.560Z,11.00
2019-04-05T19:06:54.530Z,11.00
2019-04-05T19:09:25.972Z,11.00
2019-04-05T19:11:56.825Z,10.90
2019-04-05T19:14:27.770Z,11.00
2019-04-05T19:16:59.386Z,10.90
2019-04-05T19:19:30.899Z,10.90
2019-04-05T19:22:02.841Z,10.90
2019-04-05T19:24:33.920Z,10.80
2019-04-05T19:27:04.816Z,10.70
2019-04-05T19:29:35.730Z,10.70
2019-04-05T19:49:54.596Z,10.50
2019-04-05T19:52:25.574Z,10.40
2019-04-05T19:54:56.440Z,10.20
2019-04-05T19:57:27.359Z,10.10
2019-04-05T19:59:58.235Z,10.10
2019-04-05T20:02:29.171Z,10.10
2019-04-05T20:05:00.046Z,10.10
2019-04-05T20:07:31.079Z,10.00
2019-04-05T20:10:03.027Z,10.00
2019-04-05T20:12:34.002Z,9.90
2019-04-05T20:15:05.549Z,9.80
2019-04-05T20:17:36.447Z,9.80
2019-04-05T20:20:08.134Z,9.90
2019-04-05T20:22:40.107Z,9.90
2019-04-05T20:25:12.105Z,9.80
2019-04-05T20:27:43.011Z,9.70
2019-04-05T20:30:14.838Z,9.70
2019-04-05T20:32:46.686Z,9.60
2019-04-05T20:35:17.559Z,9.60
2019-04-05T20:37:48.785Z,9.60
2019-04-05T20:40:19.948Z,9.60
2019-04-05T20:42:51.232Z,9.50
2019-04-05T20:45:22.245Z,9.50
2019-04-05T20:47:53.158Z,9.50
2019-04-05T20:50:24.020Z,9.40
2019-04-05T20:52:55.039Z,9.40
2019-04-05T20:55:26.173Z,9.40
2019-04-05T20:57:57.389Z,9.40
2019-04-05T21:00:28.726Z,9.40
2019-04-05T21:02:59.585Z,9.30
2019-04-05T21:05:31.473Z,9.40
2019-04-05T21:08:02.820Z,9.20
2019-04-05T21:10:36.341Z,9.10
2019-04-05T21:13:07.263Z,9.20
2019-04-05T21:15:38.178Z,9.20
2019-04-05T21:18:09.036Z,9.20
2019-04-05T21:20:41.045Z,9.20
2019-04-05T21:23:11.924Z,9.10
2019-04-05T21:25:42.784Z,9.00
2019-04-05T21:28:13.638Z,9.00
2019-04-05T21:30:44.492Z,8.90
2019-04-05T21:33:15.754Z,8.80
2019-04-05T21:35:46.661Z,8.80
2019-04-05T21:38:17.550Z,8.80
2019-04-05T21:40:48.381Z,8.70
2019-04-05T21:43:19.246Z,8.80
2019-04-05T21:45:50.122Z,8.70
2019-04-05T21:48:21.061Z,8.60
2019-04-05T21:50:52.011Z,8.60
2019-04-05T21:53:22.938Z,8.60
2019-04-05T21:55:55.781Z,8.50
2019-04-05T21:58:26.659Z,8.50
2019-04-05T22:01:05.328Z,8.40
2019-04-05T22:03:37.866Z,8.30
2019-04-05T22:06:08.754Z,8.40
2019-04-05T22:08:40.918Z,8.50
2019-04-05T22:11:12.133Z,8.50
2019-04-05T22:13:43.429Z,8.50
2019-04-05T22:16:14.432Z,8.50
2019-04-05T22:18:45.657Z,8.40
2019-04-05T22:21:16.835Z,8.40
2019-04-05T22:23:48.726Z,8.40
2019-04-05T22:26:19.805Z,8.30
2019-04-05T22:28:50.728Z,8.30
2019-04-05T22:31:22.149Z,8.20
2019-04-05T22:33:53.064Z,8.10
2019-04-05T22:36:24.933Z,8.20
2019-04-05T22:38:55.811Z,8.10
2019-04-05T22:41:26.682Z,8.10
2019-04-05T22:43:57.583Z,8.00
2019-04-05T22:46:28.448Z,7.90
2019-04-05T22:48:59.601Z,7.90
2019-04-05T22:51:30.820Z,8.00
2019-04-05T22:54:02.012Z,7.90
2019-04-05T22:56:33.173Z,7.90
2019-04-05T22:59:05.471Z,8.00
2019-04-05T23:01:37.149Z,8.00
2019-04-05T23:04:08.436Z,7.80
2019-04-05T23:06:39.330Z,7.90
2019-04-05T23:09:10.258Z,7.80
2019-04-05T23:11:41.909Z,7.80
2019-04-05T23:14:12.841Z,7.90
2019-04-05T23:16:44.215Z,7.90
2019-04-05T23:19:15.495Z,7.80
2019-04-05T23:21:46.739Z,7.80
2019-04-05T23:24:17.994Z,7.80
2019-04-05T23:26:49.335Z,7.70
2019-04-05T23:29:20.647Z,7.60
2019-04-05T23:31:52.021Z,7.60
2019-04-05T23:34:23.495Z,7.60
2019-04-05T23:36:54.684Z,7.50
2019-04-05T23:39:25.983Z,7.60
2019-04-05T23:41:57.580Z,7.50
2019-04-05T23:44:29.457Z,7.60
2019-04-05T23:47:00.349Z,7.50
2019-04-05T23:49:31.682Z,7.40
2019-04-05T23:52:02.989Z,7.40
2019-04-05T23:54:34.287Z,7.40
2019-04-05T23:57:05.533Z,7.40
2019-04-05T23:59:36.746Z,7.40
